createdAt,value
2022-12-23T00:01:00.326Z,99853.75
2022-12-23T00:04:02.828Z,99853.16
2022-12-23T00:07:05.269Z,99850.75
2022-12-23T00:10:08.821Z,99849.13
2022-12-23T00:13:30.981Z,99847.69
2022-12-23T00:16:36.272Z,99842.50
2022-12-23T00:19:38.693Z,99833.94
2022-12-23T00:23:00.730Z,99827.88
2022-12-23T00:26:04.272Z,99834.97
2022-12-23T00:29:06.856Z,99829.09
2022-12-23T00:32:09.674Z,99826.56
2022-12-23T00:35:12.106Z,99824.72
2022-12-23T00:38:15.189Z,99825.56
2022-12-23T00:41:37.750Z,99826.28
2022-12-23T00:44:40.091Z,99819.31
2022-12-23T00:48:02.028Z,99814.09
2022-12-23T00:51:04.701Z,99818.66
2022-12-23T00:54:07.847Z,99818.13
2022-12-23T00:57:10.262Z,99817.25
2022-12-23T01:00:13.213Z,99814.72
2022-12-23T01:03:34.612Z,99793.06
2022-12-23T01:06:37.100Z,99791.25
2022-12-23T01:09:39.560Z,99790.25
2022-12-23T01:12:42.223Z,99788.66
2022-12-23T01:15:44.795Z,99788.75
2022-12-23T01:18:47.172Z,99789.13
2022-12-23T01:21:49.597Z,99779.84
2022-12-23T01:24:52.028Z,99775.72
2022-12-23T01:27:54.415Z,99771.38
2022-12-23T01:30:57.312Z,99763.38
2022-12-23T01:33:59.701Z,99766.88
2022-12-23T01:37:02.242Z,99755.56
2022-12-23T01:40:05.448Z,99751.22
2022-12-23T01:43:14.941Z,99754.72
2022-12-23T01:46:18.088Z,99753.50
2022-12-23T01:49:20.826Z,99749.09
2022-12-23T01:52:23.469Z,99756.91
2022-12-23T01:55:28.630Z,99752.66
2022-12-23T01:58:35.208Z,99773.81
2022-12-23T02:01:56.670Z,99764.06
2022-12-23T02:04:59.930Z,99766.28
2022-12-23T02:08:21.747Z,99759.31
2022-12-23T02:11:42.900Z,99758.41
2022-12-23T02:15:22.267Z,99755.31
2022-12-23T02:19:08.076Z,99772.87
2022-12-23T02:22:31.914Z,99769.09
2022-12-23T02:25:46.240Z,99764.22
2022-12-23T02:29:12.783Z,99758.09
2022-12-23T02:32:36.790Z,99761.69
2022-12-23T02:36:07.695Z,99755.84
2022-12-23T02:39:19.389Z,99753.47
2022-12-23T02:42:31.218Z,99749.94
2022-12-23T02:45:41.932Z,99761.12
2022-12-23T02:49:08.294Z,99754.12
2022-12-23T02:52:16.200Z,99748.97
2022-12-23T02:55:28.221Z,99748.78
2022-12-23T02:58:37.571Z,99750.37
2022-12-23T03:01:41.474Z,99735.84
2022-12-23T03:04:44.134Z,99734.41
2022-12-23T03:07:46.573Z,99726.69
2022-12-23T03:11:05.038Z,99731.78
2022-12-23T03:14:25.688Z,99723.34
2022-12-23T03:17:27.984Z,99718.94
2022-12-23T03:20:52.299Z,99721.47
2022-12-23T03:24:06.583Z,99719.06
2022-12-23T03:27:22.438Z,99720.00
2022-12-23T03:30:25.903Z,99706.19
2022-12-23T03:33:34.124Z,99706.38
2022-12-23T03:36:45.854Z,99699.50
2022-12-23T03:39:59.081Z,99697.97
2022-12-23T03:43:09.832Z,99696.22
2022-12-23T03:46:39.286Z,99698.81
2022-12-23T03:49:53.050Z,99696.97
2022-12-23T03:53:04.008Z,99698.66
2022-12-23T03:56:12.598Z,99693.59
2022-12-23T03:59:20.153Z,99691.00
2022-12-23T04:02:28.334Z,99686.72
2022-12-23T04:05:35.073Z,99679.84
2022-12-23T04:08:38.911Z,99674.59
2022-12-23T04:11:41.283Z,99672.94
2022-12-23T04:14:48.798Z,99673.72
2022-12-23T04:17:53.055Z,99662.47
2022-12-23T04:20:59.376Z,99670.28
2022-12-23T04:24:01.437Z,99670.19
2022-12-23T04:27:03.504Z,99668.34
2022-12-23T04:30:07.322Z,99662.22
2022-12-23T04:33:12.061Z,99666.53
2022-12-23T04:36:14.156Z,99669.22
2022-12-23T04:39:16.152Z,99674.38
2022-12-23T04:42:18.268Z,99675.31
2022-12-23T04:45:20.366Z,99671.91
2022-12-23T04:48:22.474Z,99673.63
2022-12-23T04:51:24.653Z,99666.69
2022-12-23T04:54:26.829Z,99663.31
2022-12-23T04:57:28.928Z,99656.53
2022-12-23T05:00:39.226Z,99646.06
2022-12-23T05:03:42.296Z,99646.97
2022-12-23T05:06:44.520Z,99647.28
2022-12-23T05:09:46.779Z,99642.16
2022-12-23T05:12:48.757Z,99636.88
2022-12-23T05:15:54.116Z,99645.59
2022-12-23T05:18:56.200Z,99635.16
2022-12-23T05:21:58.257Z,99623.78
2022-12-23T05:25:00.334Z,99632.28
2022-12-23T05:28:03.213Z,99627.84
2022-12-23T05:31:08.225Z,99631.19
2022-12-23T05:34:10.526Z,99635.41
2022-12-23T05:37:12.733Z,99630.94
2022-12-23T05:40:21.605Z,99625.56
2022-12-23T05:43:25.824Z,99627.06
2022-12-23T05:46:27.996Z,99623.47
2022-12-23T05:49:32.596Z,99636.41
2022-12-23T05:52:34.769Z,99635.37
2022-12-23T05:55:37.076Z,99652.56
2022-12-23T05:58:39.120Z,99655.16
2022-12-23T06:01:41.429Z,99649.13
2022-12-23T06:04:43.605Z,99653.34
2022-12-23T06:07:45.699Z,99654.97
2022-12-23T06:10:48.743Z,99656.63
2022-12-23T06:13:52.660Z,99656.50
2022-12-23T06:16:54.884Z,99662.44
2022-12-23T06:19:56.969Z,99655.50
2022-12-23T06:22:59.129Z,99646.84
2022-12-23T06:26:02.319Z,99646.94
2022-12-23T06:29:04.614Z,99642.47
2022-12-23T06:32:07.369Z,99655.22
2022-12-23T06:35:09.853Z,99655.94
2022-12-23T06:38:12.497Z,99654.84
2022-12-23T06:41:15.098Z,99653.47
2022-12-23T06:44:17.555Z,99639.22
2022-12-23T06:47:19.581Z,99642.34
2022-12-23T06:50:22.477Z,99645.81
2022-12-23T06:53:25.035Z,99630.88
2022-12-23T06:56:27.639Z,99636.00
2022-12-23T06:59:30.096Z,99619.87
2022-12-23T07:02:32.321Z,99621.53
2022-12-23T07:05:37.659Z,99612.00
2022-12-23T07:08:40.141Z,99617.75
2022-12-23T07:11:42.438Z,99630.44
2022-12-23T07:14:44.469Z,99645.59
2022-12-23T07:17:46.511Z,99638.97
2022-12-23T07:20:48.940Z,99641.53
2022-12-23T07:23:50.979Z,99641.31
2022-12-23T07:26:53.043Z,99652.38
2022-12-23T07:29:55.146Z,99654.72
2022-12-23T07:32:57.190Z,99631.06
2022-12-23T07:35:59.809Z,99624.06
2022-12-23T07:39:01.949Z,99622.97
2022-12-23T07:42:33.950Z,99618.84
2022-12-23T07:45:27.793Z,99618.59
2022-12-23T07:48:30.024Z,99622.66
2022-12-23T07:51:32.571Z,99619.81
2022-12-23T07:54:34.888Z,99617.19
2022-12-23T07:57:38.007Z,99634.28
2022-12-23T08:00:44.879Z,99630.94
2022-12-23T08:03:47.895Z,99633.28
2022-12-23T08:06:50.027Z,99625.28
2022-12-23T08:09:52.101Z,99622.84
2022-12-23T08:12:54.306Z,99612.53
2022-12-23T08:16:01.125Z,99615.69
2022-12-23T08:19:03.687Z,99615.09
2022-12-23T08:22:07.895Z,99619.19
2022-12-23T08:25:10.225Z,99634.34
2022-12-23T08:28:12.312Z,99634.41
2022-12-23T08:31:14.427Z,99645.53
2022-12-23T08:34:17.175Z,99645.41
2022-12-23T08:37:19.204Z,99651.06
2022-12-23T08:40:23.251Z,99647.66
2022-12-23T08:43:28.820Z,99639.66
2022-12-23T08:46:35.335Z,99639.12
2022-12-23T08:49:37.587Z,99638.53
2022-12-23T08:52:39.663Z,99627.41
2022-12-23T08:55:44.430Z,99635.97
2022-12-23T08:58:48.921Z,99644.16
2022-12-23T09:01:51.299Z,99634.97
2022-12-23T09:04:53.737Z,99627.13
2022-12-23T09:07:56.065Z,99616.22
2022-12-23T09:10:58.314Z,99610.53
2022-12-23T09:14:01.641Z,99594.22
2022-12-23T09:17:03.773Z,99613.47
2022-12-23T09:20:06.658Z,99604.25
2022-12-23T09:23:09.170Z,99601.28
2022-12-23T09:26:17.605Z,99616.44
2022-12-23T09:29:19.679Z,99602.31
2022-12-23T09:32:21.900Z,99598.97
2022-12-23T09:35:24.257Z,99608.81
2022-12-23T09:38:26.282Z,99600.66
2022-12-23T09:42:01.590Z,99584.38
2022-12-23T09:45:40.473Z,99589.91
2022-12-23T09:49:02.734Z,99582.72
2022-12-23T09:52:13.805Z,99587.13
2022-12-23T09:55:17.468Z,99587.66
2022-12-23T09:58:40.732Z,99577.38
2022-12-23T10:02:20.130Z,99577.22
2022-12-23T10:05:49.029Z,99562.84
2022-12-23T10:08:55.298Z,99579.56
2022-12-23T10:11:58.063Z,99566.50
2022-12-23T10:15:02.758Z,99553.34
2022-12-23T10:18:40.270Z,99534.31
2022-12-23T10:21:55.459Z,99538.44
2022-12-23T10:25:01.472Z,99526.22
2022-12-23T10:28:04.791Z,99531.72
2022-12-23T10:34:49.475Z,99539.44
2022-12-23T10:37:51.540Z,99545.22
2022-12-23T10:41:23.614Z,99546.34
2022-12-23T10:45:03.113Z,99549.59
2022-12-23T10:48:41.072Z,99544.19
2022-12-23T10:52:15.589Z,99534.31
2022-12-23T10:55:31.423Z,99528.41
2022-12-23T10:58:42.531Z,99523.41
2022-12-23T11:01:52.409Z,99527.47
2022-12-23T11:04:54.764Z,99512.81
2022-12-23T11:07:57.580Z,99519.25
2022-12-23T11:11:01.929Z,99516.38
2022-12-23T11:14:03.933Z,99508.94
2022-12-23T11:17:19.168Z,99520.50
2022-12-23T11:20:22.284Z,99518.00
2022-12-23T11:23:24.409Z,99525.81
2022-12-23T11:26:26.458Z,99530.16
2022-12-23T11:29:43.990Z,99523.66
2022-12-23T11:32:46.199Z,99512.09
2022-12-23T11:35:48.416Z,99509.62
2022-12-23T11:39:12.132Z,99496.16
2022-12-23T11:42:24.573Z,99494.56
2022-12-23T11:45:30.045Z,99487.41
2022-12-23T11:48:32.285Z,99482.78
2022-12-23T11:51:34.413Z,99489.19
2022-12-23T11:54:37.558Z,99480.03
2022-12-23T11:57:48.838Z,99494.62
2022-12-23T12:00:58.828Z,99496.63
2022-12-23T12:04:06.671Z,99497.03
2022-12-23T12:07:14.547Z,99494.25
2022-12-23T12:10:21.867Z,99509.03
2022-12-23T12:13:36.649Z,99504.34
2022-12-23T12:17:11.106Z,99506.06
2022-12-23T12:20:30.477Z,99529.31
2022-12-23T12:24:08.375Z,99521.84
2022-12-23T12:27:14.009Z,99533.03
2022-12-23T12:30:19.892Z,99536.78
2022-12-23T12:33:50.827Z,99530.72
2022-12-23T12:36:59.065Z,99535.19
2022-12-23T12:40:13.892Z,99532.47
2022-12-23T12:43:32.289Z,99534.47
2022-12-23T12:46:57.647Z,99527.91
2022-12-23T12:50:04.923Z,99528.34
2022-12-23T12:53:19.374Z,99521.13
2022-12-23T12:56:53.570Z,99515.63
2022-12-23T13:00:05.349Z,99512.78
2022-12-23T13:03:22.242Z,99509.59
2022-12-23T13:06:35.728Z,99504.44
2022-12-23T13:09:38.840Z,99516.66
2022-12-23T13:12:40.973Z,99513.03
2022-12-23T13:15:59.126Z,99521.25
2022-12-23T13:19:06.113Z,99516.34
2022-12-23T13:22:15.641Z,99523.91
2022-12-23T13:25:20.327Z,99515.06
2022-12-23T13:29:05.247Z,99521.06
2022-12-23T13:32:25.126Z,99520.41
2022-12-23T13:35:32.299Z,99511.41
2022-12-23T13:38:43.045Z,99504.28
2022-12-23T13:41:51.694Z,99504.41
2022-12-23T13:44:56.675Z,99509.75
2022-12-23T13:48:29.841Z,99499.94
2022-12-23T13:51:45.405Z,99495.97
2022-12-23T13:54:50.099Z,99488.47
2022-12-23T13:57:52.124Z,99486.78
2022-12-23T14:01:31.589Z,99491.44
2022-12-23T14:04:56.916Z,99490.44
2022-12-23T14:08:01.580Z,99481.69
2022-12-23T14:11:16.052Z,99479.19
2022-12-23T14:14:23.613Z,99505.47
2022-12-23T14:17:39.089Z,99510.94
2022-12-23T14:21:04.703Z,99507.44
2022-12-23T14:24:35.551Z,99514.94
2022-12-23T14:28:04.404Z,99501.22
2022-12-23T14:31:31.224Z,99508.19
2022-12-23T14:34:34.456Z,99511.47
2022-12-23T14:37:36.619Z,99515.06
2022-12-23T14:40:43.200Z,99511.72
2022-12-23T14:43:45.495Z,99505.53
2022-12-23T14:46:47.480Z,99518.34
2022-12-23T14:49:49.820Z,99528.59
2022-12-23T14:53:00.424Z,99528.00
2022-12-23T14:56:26.949Z,99523.16
2022-12-23T14:59:42.919Z,99534.97
2022-12-23T15:02:45.070Z,99537.47
2022-12-23T15:05:47.382Z,99535.78
2022-12-23T15:08:53.066Z,99531.78
2022-12-23T15:11:57.640Z,99536.81
2022-12-23T15:15:22.901Z,99526.69
2022-12-23T15:18:25.675Z,99543.53
2022-12-23T15:21:33.660Z,99544.47
2022-12-23T15:24:35.693Z,99531.78
2022-12-23T15:27:37.788Z,99519.38
2022-12-23T15:30:48.766Z,99523.69
2022-12-23T15:34:02.715Z,99532.44
2022-12-23T15:37:13.213Z,99523.81
2022-12-23T15:40:35.114Z,99520.31
2022-12-23T15:43:41.983Z,99521.66
2022-12-23T15:46:44.577Z,99525.12
2022-12-23T15:49:46.898Z,99523.13
2022-12-23T15:52:50.761Z,99523.22
2022-12-23T15:55:53.652Z,99522.25
2022-12-23T15:58:56.882Z,99521.03
2022-12-23T16:01:59.554Z,99518.97
2022-12-23T16:05:04.143Z,99524.25
2022-12-23T16:08:28.200Z,99511.56
2022-12-23T16:12:00.113Z,99517.19
2022-12-23T16:15:02.338Z,99509.28
2022-12-23T16:18:32.868Z,99500.38
2022-12-23T16:21:36.965Z,99501.56
2022-12-23T16:24:48.558Z,99509.38
2022-12-23T16:27:58.404Z,99509.50
2022-12-23T16:31:01.458Z,99511.53
2022-12-23T16:34:07.808Z,99508.25
2022-12-23T16:37:09.887Z,99511.34
2022-12-23T16:40:14.522Z,99519.50
2022-12-23T16:43:17.637Z,99516.94
2022-12-23T16:46:22.370Z,99514.22
2022-12-23T16:49:34.333Z,99510.81
2022-12-23T16:52:36.525Z,99509.22
2022-12-23T16:55:42.879Z,99513.91
2022-12-23T16:58:48.545Z,99522.06
2022-12-23T17:01:51.178Z,99521.66
2022-12-23T17:04:53.245Z,99521.87
2022-12-23T17:07:55.380Z,99522.78
2022-12-23T17:10:59.400Z,99527.06
2022-12-23T17:14:05.610Z,99516.16
2022-12-23T17:17:26.138Z,99503.44
2022-12-23T17:20:28.502Z,99501.97
2022-12-23T17:23:32.608Z,99506.75
2022-12-23T17:26:34.787Z,99496.66
2022-12-23T17:29:36.825Z,99497.53
2022-12-23T17:32:39.286Z,99490.72
2022-12-23T17:35:41.392Z,99500.47
2022-12-23T17:38:43.454Z,99498.78
2022-12-23T17:41:46.081Z,99509.97
2022-12-23T17:44:49.147Z,99507.56
2022-12-23T17:47:51.472Z,99510.09
2022-12-23T17:50:55.501Z,99507.47
2022-12-23T17:53:58.900Z,99511.16
2022-12-23T17:57:00.961Z,99524.38
2022-12-23T18:00:04.109Z,99515.69
2022-12-23T18:03:07.161Z,99522.78
2022-12-23T18:06:13.731Z,99515.09
2022-12-23T18:09:16.906Z,99508.97
2022-12-23T18:12:34.664Z,99508.97
2022-12-23T18:15:39.575Z,99504.50
2022-12-23T18:18:46.232Z,99508.53
2022-12-23T18:21:49.966Z,99501.75
2022-12-23T18:24:58.917Z,99510.75
2022-12-23T18:28:01.547Z,99503.66
2022-12-23T18:31:05.396Z,99508.84
2022-12-23T18:34:07.647Z,99512.53
2022-12-23T18:37:09.750Z,99500.28
2022-12-23T18:40:12.348Z,99497.53
2022-12-23T18:43:19.754Z,99492.25
2022-12-23T18:46:22.145Z,99490.75
2022-12-23T18:49:24.351Z,99486.44
2022-12-23T18:52:26.655Z,99490.25
2022-12-23T18:55:30.508Z,99483.37
2022-12-23T18:58:32.637Z,99483.47
2022-12-23T19:01:35.343Z,99491.72
2022-12-23T19:04:37.790Z,99508.44
2022-12-23T19:07:39.919Z,99513.50
2022-12-23T19:10:46.488Z,99523.34
2022-12-23T19:13:49.133Z,99528.63
2022-12-23T19:16:52.633Z,99525.47
2022-12-23T19:19:55.002Z,99529.28
2022-12-23T19:22:57.368Z,99523.25
2022-12-23T19:25:59.492Z,99530.53
2022-12-23T19:29:01.618Z,99538.56
2022-12-23T19:32:03.887Z,99535.00
2022-12-23T19:35:06.526Z,99536.25
2022-12-23T19:38:08.645Z,99533.38
2022-12-23T19:41:13.756Z,99529.56
2022-12-23T19:44:15.823Z,99528.37
2022-12-23T19:47:17.978Z,99532.12
2022-12-23T19:50:20.199Z,99534.13
2022-12-23T19:53:22.304Z,99537.94
2022-12-23T19:56:25.220Z,99534.03
2022-12-23T19:59:27.436Z,99536.66
2022-12-23T20:02:29.953Z,99531.59
2022-12-23T20:05:32.173Z,99532.78
2022-12-23T20:08:34.959Z,99532.78
2022-12-23T20:11:48.706Z,99526.53
2022-12-23T20:14:51.007Z,99535.41
2022-12-23T20:17:54.282Z,99539.00
2022-12-23T20:20:58.386Z,99537.84
2022-12-23T20:24:00.871Z,99540.50
2022-12-23T20:27:09.314Z,99545.88
2022-12-23T20:30:13.664Z,99526.75
2022-12-23T20:33:16.352Z,99529.37
2022-12-23T20:36:21.806Z,99531.19
2022-12-23T20:39:24.077Z,99539.44
2022-12-23T20:42:28.153Z,99530.78
2022-12-23T20:45:30.899Z,99532.38
2022-12-23T20:48:34.695Z,99515.75
2022-12-23T20:51:37.274Z,99514.78
2022-12-23T20:54:39.599Z,99512.16
2022-12-23T20:57:44.948Z,99500.03
2022-12-23T21:00:49.885Z,99494.44
2022-12-23T21:03:52.220Z,99491.37
2022-12-23T21:06:54.352Z,99487.34
2022-12-23T21:09:56.486Z,99491.47
2022-12-23T21:12:58.663Z,99495.38
2022-12-23T21:16:02.810Z,99501.59
2022-12-23T21:19:07.513Z,99487.12
2022-12-23T21:22:09.785Z,99495.69
2022-12-23T21:25:11.859Z,99491.47
2022-12-23T21:28:13.924Z,99488.94
2022-12-23T21:31:19.128Z,99493.59
2022-12-23T21:34:21.219Z,99485.97
2022-12-23T21:37:23.249Z,99476.38
2022-12-23T21:40:25.465Z,99469.50
2022-12-23T21:43:27.976Z,99468.88
2022-12-23T21:46:30.208Z,99453.22
2022-12-23T21:49:32.351Z,99453.44
2022-12-23T21:52:34.381Z,99457.03
2022-12-23T21:55:36.394Z,99454.28
2022-12-23T21:58:39.075Z,99444.81
2022-12-23T22:01:42.629Z,99432.31
2022-12-23T22:04:44.789Z,99439.53
2022-12-23T22:07:46.813Z,99437.31
2022-12-23T22:10:55.196Z,99444.91
2022-12-23T22:13:58.934Z,99455.56
2022-12-23T22:17:01.042Z,99461.91
2022-12-23T22:20:03.980Z,99474.25
2022-12-23T22:23:07.232Z,99470.66
2022-12-23T22:26:17.447Z,99458.69
2022-12-23T22:29:22.988Z,99458.81
2022-12-23T22:32:25.301Z,99447.91
2022-12-23T22:35:28.093Z,99449.63
2022-12-23T22:38:30.262Z,99445.81
2022-12-23T22:41:32.987Z,99431.22
2022-12-23T22:44:35.094Z,99433.12
2022-12-23T22:47:37.413Z,99418.56
2022-12-23T22:50:41.123Z,99408.22
2022-12-23T22:53:44.422Z,99399.47
2022-12-23T22:56:46.562Z,99390.25
2022-12-23T22:59:48.694Z,99375.50
2022-12-23T23:02:50.715Z,99382.34
2022-12-23T23:05:56.740Z,99389.63
2022-12-23T23:08:59.472Z,99395.75
2022-12-23T23:12:01.864Z,99402.97
2022-12-23T23:15:04.311Z,99416.03
2022-12-23T23:18:06.426Z,99429.37
2022-12-23T23:21:11.552Z,99437.37
2022-12-23T23:24:13.772Z,99438.44
2022-12-23T23:27:16.174Z,99420.06
2022-12-23T23:30:20.641Z,99416.91
2022-12-23T23:33:22.857Z,99438.91
2022-12-23T23:36:25.244Z,99456.84
2022-12-23T23:39:27.646Z,99467.94
2022-12-23T23:42:29.963Z,99455.44
2022-12-23T23:45:32.192Z,99452.31
2022-12-23T23:48:34.391Z,99448.56
2022-12-23T23:51:36.453Z,99440.12
2022-12-23T23:54:38.925Z,99430.63
2022-12-23T23:57:41.053Z,99423.44
